createdAt,value
2023-01-21T00:01:17.023Z,10.27
2023-01-21T00:03:45.501Z,10.40
2023-01-21T00:06:14.954Z,9.40
2023-01-21T00:08:43.240Z,9.70
2023-01-21T00:11:14.790Z,9.97
2023-01-21T00:13:44.027Z,11.23
2023-01-21T00:16:13.054Z,12.17
2023-01-21T00:18:41.293Z,10.03
2023-01-21T00:21:09.461Z,10.10
2023-01-21T00:23:37.778Z,8.63
2023-01-21T00:26:08.067Z,10.63
2023-01-21T00:28:38.338Z,12.17
2023-01-21T00:31:09.016Z,11.70
2023-01-21T00:33:38.140Z,13.13
2023-01-21T00:36:08.336Z,9.67
2023-01-21T00:38:36.640Z,14.83
2023-01-21T00:41:06.259Z,12.07
2023-01-21T00:43:34.649Z,11.17
2023-01-21T00:46:04.189Z,10.83
2023-01-21T00:48:32.432Z,10.77
2023-01-21T00:51:01.072Z,10.03
2023-01-21T00:53:30.510Z,11.57
2023-01-21T00:56:01.091Z,11.53
2023-01-21T00:58:29.599Z,11.23
2023-01-21T01:01:07.502Z,11.70
2023-01-21T01:03:38.280Z,9.80
2023-01-21T01:06:08.259Z,10.73
2023-01-21T01:08:36.172Z,11.43
2023-01-21T01:11:04.682Z,10.97
2023-01-21T01:13:34.257Z,12.30
2023-01-21T01:16:02.722Z,12.90
2023-01-21T01:18:33.891Z,11.07
2023-01-21T01:21:06.233Z,10.80
2023-01-21T01:23:34.146Z,12.30
2023-01-21T01:26:03.461Z,11.33
2023-01-21T01:28:32.615Z,14.83
2023-01-21T01:31:01.761Z,12.00
2023-01-21T01:33:29.698Z,15.10
2023-01-21T01:36:02.484Z,11.97
2023-01-21T01:38:30.499Z,11.73
2023-01-21T01:40:58.544Z,13.13
2023-01-21T01:43:48.287Z,11.03
2023-01-21T01:46:16.696Z,11.83
2023-01-21T01:48:48.402Z,12.03
2023-01-21T01:51:21.121Z,12.20
2023-01-21T01:53:49.548Z,12.90
2023-01-21T01:56:17.781Z,14.00
2023-01-21T01:58:48.040Z,10.50
2023-01-21T02:01:16.322Z,13.40
2023-01-21T02:03:50.869Z,9.90
2023-01-21T02:06:20.261Z,10.90
2023-01-21T02:08:48.832Z,10.80
2023-01-21T02:11:18.212Z,11.10
2023-01-21T02:13:49.200Z,10.40
2023-01-21T02:16:31.058Z,12.20
2023-01-21T02:19:21.102Z,10.17
2023-01-21T02:22:14.408Z,11.77
2023-01-21T02:25:17.872Z,11.03
2023-01-21T02:27:56.017Z,12.40
2023-01-21T02:30:47.629Z,13.63
2023-01-21T02:33:41.850Z,10.83
2023-01-21T02:36:22.035Z,10.60
2023-01-21T02:38:58.724Z,11.10
2023-01-21T02:41:34.263Z,11.53
2023-01-21T02:44:11.934Z,11.90
2023-01-21T02:46:45.825Z,10.13
2023-01-21T02:49:23.949Z,10.50
2023-01-21T02:51:51.967Z,9.00
2023-01-21T02:54:49.764Z,11.60
2023-01-21T02:57:25.561Z,12.13
2023-01-21T02:59:56.501Z,11.53
2023-01-21T03:02:36.943Z,9.87
2023-01-21T03:05:12.489Z,9.83
2023-01-21T03:07:47.574Z,9.40
2023-01-21T03:10:24.659Z,11.90
2023-01-21T03:13:00.494Z,9.77
2023-01-21T03:15:58.403Z,9.03
2023-01-21T03:18:32.421Z,12.50
2023-01-21T03:21:06.782Z,10.47
2023-01-21T03:23:39.705Z,12.60
2023-01-21T03:26:10.428Z,10.77
2023-01-21T03:28:43.799Z,8.17
2023-01-21T03:31:17.749Z,9.90
2023-01-21T03:33:50.073Z,9.87
2023-01-21T03:36:27.844Z,11.53
2023-01-21T03:38:58.890Z,12.40
2023-01-21T03:41:33.977Z,9.00
2023-01-21T03:44:01.968Z,9.87
2023-01-21T03:46:38.305Z,9.37
2023-01-21T03:49:13.007Z,7.97
2023-01-21T03:51:47.854Z,8.83
2023-01-21T03:54:16.132Z,7.30
2023-01-21T03:56:43.980Z,8.60
2023-01-21T03:59:11.976Z,8.33
2023-01-21T04:01:41.736Z,9.93
2023-01-21T04:04:11.064Z,8.77
2023-01-21T04:06:38.999Z,8.60
2023-01-21T04:09:08.548Z,8.93
2023-01-21T04:11:36.410Z,8.30
2023-01-21T04:14:04.352Z,8.17
2023-01-21T04:16:32.255Z,6.93
2023-01-21T04:19:00.109Z,7.00
2023-01-21T04:21:27.914Z,7.10
2023-01-21T04:23:56.128Z,7.40
2023-01-21T04:26:25.422Z,6.57
2023-01-21T04:28:53.519Z,8.20
2023-01-21T04:31:21.507Z,5.80
2023-01-21T04:33:49.406Z,6.90
2023-01-21T04:36:17.313Z,6.03
2023-01-21T04:38:45.252Z,6.60
2023-01-21T04:41:13.437Z,6.47
2023-01-21T04:43:42.807Z,8.33
2023-01-21T04:46:10.950Z,6.40
2023-01-21T04:48:38.811Z,5.90
2023-01-21T04:51:07.873Z,6.50
2023-01-21T04:53:36.025Z,5.83
2023-01-21T04:56:03.934Z,5.60
2023-01-21T04:58:31.987Z,7.30
2023-01-21T05:01:01.505Z,8.63
2023-01-21T05:03:29.508Z,7.13
2023-01-21T05:05:57.316Z,6.40
2023-01-21T05:08:25.313Z,6.63
2023-01-21T05:10:53.205Z,6.70
2023-01-21T05:13:21.116Z,7.37
2023-01-21T05:15:49.038Z,6.20
2023-01-21T05:18:18.436Z,5.77
2023-01-21T05:20:46.337Z,9.37
2023-01-21T05:23:14.188Z,6.97
2023-01-21T05:25:42.174Z,4.97
2023-01-21T05:28:10.137Z,5.37
2023-01-21T05:30:40.432Z,6.43
2023-01-21T05:33:08.871Z,5.47
2023-01-21T05:35:38.078Z,5.77
2023-01-21T05:38:06.130Z,6.23
2023-01-21T05:40:34.084Z,5.87
2023-01-21T05:43:02.009Z,5.53
2023-01-21T05:45:30.037Z,5.80
2023-01-21T05:47:57.868Z,4.77
2023-01-21T05:50:25.807Z,5.10
2023-01-21T05:52:55.066Z,6.13
2023-01-21T05:55:23.120Z,8.10
2023-01-21T05:57:51.381Z,7.40
2023-01-21T06:00:20.234Z,6.27
2023-01-21T06:02:48.191Z,4.80
2023-01-21T06:05:16.230Z,4.60
2023-01-21T06:07:44.098Z,5.17
2023-01-21T06:10:13.436Z,5.87
2023-01-21T06:12:41.282Z,4.57
2023-01-21T06:15:10.058Z,5.13
2023-01-21T06:17:40.131Z,4.93
2023-01-21T06:20:09.794Z,5.87
2023-01-21T06:22:37.755Z,5.63
2023-01-21T06:25:06.311Z,5.60
2023-01-21T06:27:37.194Z,4.60
2023-01-21T06:30:06.353Z,6.47
2023-01-21T06:32:34.703Z,4.53
2023-01-21T06:35:02.622Z,5.57
2023-01-21T06:37:30.957Z,5.90
2023-01-21T06:39:59.024Z,5.00
2023-01-21T06:42:27.212Z,4.23
2023-01-21T06:44:56.576Z,4.63
2023-01-21T06:47:24.474Z,5.63
2023-01-21T06:49:52.881Z,6.03
2023-01-21T06:52:20.706Z,5.30
2023-01-21T06:54:49.194Z,5.20
2023-01-21T06:57:17.227Z,6.97
2023-01-21T06:59:45.163Z,5.40
2023-01-21T07:02:14.653Z,6.70
2023-01-21T07:04:44.959Z,5.60
2023-01-21T07:07:12.895Z,5.00
2023-01-21T07:09:40.820Z,5.30
2023-01-21T07:12:08.955Z,4.50
2023-01-21T07:14:36.956Z,7.03
2023-01-21T07:17:04.893Z,9.27
2023-01-21T07:19:34.155Z,6.70
2023-01-21T07:22:02.111Z,5.27
2023-01-21T07:24:30.139Z,4.77
2023-01-21T07:26:58.147Z,5.03
2023-01-21T07:29:28.001Z,5.13
2023-01-21T07:31:55.926Z,5.37
2023-01-21T07:34:24.073Z,4.83
2023-01-21T07:36:53.431Z,5.20
2023-01-21T07:39:21.379Z,5.73
2023-01-21T07:41:49.728Z,6.73
2023-01-21T07:44:18.986Z,4.83
2023-01-21T07:46:46.796Z,4.50
2023-01-21T07:49:18.286Z,5.23
2023-01-21T07:51:46.814Z,5.43
2023-01-21T07:54:16.338Z,4.97
2023-01-21T07:56:44.261Z,4.43
2023-01-21T07:59:13.345Z,4.70
2023-01-21T08:01:41.462Z,3.80
2023-01-21T08:04:09.854Z,4.00
2023-01-21T08:06:41.193Z,4.60
2023-01-21T08:09:10.220Z,3.90
2023-01-21T08:11:39.451Z,7.03
2023-01-21T08:14:07.348Z,5.97
2023-01-21T08:16:35.274Z,4.50
2023-01-21T08:19:03.195Z,4.50
2023-01-21T08:21:30.976Z,8.67
2023-01-21T08:23:59.008Z,8.27
2023-01-21T08:26:26.876Z,5.33
2023-01-21T08:28:56.201Z,4.37
2023-01-21T08:31:24.310Z,5.30
2023-01-21T08:33:52.244Z,5.10
2023-01-21T08:36:20.126Z,5.33
2023-01-21T08:38:48.883Z,4.73
2023-01-21T08:41:17.814Z,4.23
2023-01-21T08:43:45.724Z,4.53
2023-01-21T08:46:15.657Z,5.90
2023-01-21T08:48:43.539Z,4.90
2023-01-21T08:51:11.579Z,7.10
2023-01-21T08:53:39.474Z,4.90
2023-01-21T08:56:07.794Z,4.87
2023-01-21T08:58:35.817Z,5.10
2023-01-21T09:01:08.628Z,5.17
2023-01-21T09:03:38.526Z,4.63
2023-01-21T09:06:07.467Z,4.43
2023-01-21T09:08:36.508Z,5.33
2023-01-21T09:11:06.808Z,5.20
2023-01-21T09:13:37.517Z,5.67
2023-01-21T09:16:09.916Z,4.60
2023-01-21T09:18:39.320Z,5.73
2023-01-21T09:21:07.981Z,4.60
2023-01-21T09:23:36.899Z,6.57
2023-01-21T09:26:07.987Z,5.33
2023-01-21T09:28:37.853Z,4.50
2023-01-21T09:31:07.368Z,7.50
2023-01-21T09:33:37.560Z,4.80
2023-01-21T09:36:09.071Z,5.17
2023-01-21T09:38:36.912Z,6.07
2023-01-21T09:41:18.827Z,6.17
2023-01-21T09:43:50.459Z,5.97
2023-01-21T09:46:28.976Z,5.07
2023-01-21T09:48:59.201Z,6.93
2023-01-21T09:51:36.773Z,6.00
2023-01-21T09:54:14.679Z,6.77
2023-01-21T09:56:53.222Z,6.03
2023-01-21T09:59:28.545Z,6.40
2023-01-21T10:02:00.302Z,5.17
2023-01-21T10:04:40.411Z,4.97
2023-01-21T10:07:16.314Z,4.93
2023-01-21T10:10:03.274Z,4.87
2023-01-21T10:12:53.597Z,4.77
2023-01-21T10:15:47.769Z,4.97
2023-01-21T10:18:19.565Z,5.33
2023-01-21T10:20:52.021Z,5.50
2023-01-21T10:23:25.964Z,5.33
2023-01-21T10:25:53.861Z,6.33
2023-01-21T10:28:25.209Z,5.07
2023-01-21T10:30:54.478Z,6.90
2023-01-21T10:33:25.357Z,5.83
2023-01-21T10:36:11.818Z,6.83
2023-01-21T10:38:45.731Z,7.30
2023-01-21T10:41:25.108Z,5.63
2023-01-21T10:44:01.753Z,7.00
2023-01-21T10:46:38.120Z,5.83
2023-01-21T10:49:20.801Z,6.40
2023-01-21T10:51:53.624Z,5.10
2023-01-21T10:54:31.088Z,5.67
2023-01-21T10:57:07.787Z,5.70
2023-01-21T10:59:38.235Z,5.83
2023-01-21T11:02:19.562Z,7.77
2023-01-21T11:04:47.798Z,6.60
2023-01-21T11:07:20.797Z,5.73
2023-01-21T11:09:50.289Z,6.40
2023-01-21T11:12:20.374Z,7.90
2023-01-21T11:14:51.908Z,9.40
2023-01-21T11:17:34.709Z,6.30
2023-01-21T11:20:05.498Z,5.87
2023-01-21T11:22:33.855Z,5.93
2023-01-21T11:25:03.564Z,5.53
2023-01-21T11:27:36.296Z,5.60
2023-01-21T11:30:16.631Z,9.30
2023-01-21T11:32:48.900Z,7.20
2023-01-21T11:35:21.989Z,7.30
2023-01-21T11:37:50.002Z,7.13
2023-01-21T11:40:25.107Z,6.13
2023-01-21T11:42:55.290Z,10.23
2023-01-21T11:45:29.795Z,7.77
2023-01-21T11:47:58.921Z,6.43
2023-01-21T11:50:29.444Z,9.00
2023-01-21T11:53:11.404Z,7.20
2023-01-21T11:55:42.307Z,8.23
2023-01-21T11:58:19.856Z,7.90
2023-01-21T12:00:50.741Z,9.63
2023-01-21T12:03:22.116Z,7.57
2023-01-21T12:05:53.008Z,7.30
2023-01-21T12:08:24.287Z,6.57
2023-01-21T12:10:55.980Z,5.90
2023-01-21T12:13:30.659Z,7.70
2023-01-21T12:16:28.706Z,7.50
2023-01-21T12:19:33.633Z,6.10
2023-01-21T12:22:20.385Z,8.67
2023-01-21T12:25:04.894Z,6.40
2023-01-21T12:27:45.023Z,6.83
2023-01-21T12:30:26.079Z,8.20
2023-01-21T12:32:58.538Z,7.40
2023-01-21T12:35:31.333Z,8.07
2023-01-21T12:38:05.631Z,6.43
2023-01-21T12:40:38.369Z,6.73
2023-01-21T12:43:16.887Z,7.57
2023-01-21T12:45:49.908Z,8.07
2023-01-21T12:48:25.637Z,6.20
2023-01-21T12:50:59.109Z,7.97
2023-01-21T12:53:33.958Z,7.87
2023-01-21T12:56:19.114Z,8.87
2023-01-21T12:58:55.792Z,8.30
2023-01-21T13:01:40.739Z,6.53
2023-01-21T13:04:25.243Z,7.23
2023-01-21T13:07:01.865Z,6.47
2023-01-21T13:09:38.334Z,6.83
2023-01-21T13:12:12.620Z,6.70
2023-01-21T13:14:48.282Z,9.07
2023-01-21T13:17:19.996Z,6.10
2023-01-21T13:19:48.003Z,6.07
2023-01-21T13:22:26.287Z,7.70
2023-01-21T13:25:05.820Z,10.20
2023-01-21T13:27:44.326Z,8.50
2023-01-21T13:30:24.811Z,7.97
2023-01-21T13:33:05.574Z,6.60
2023-01-21T13:35:42.354Z,6.93
2023-01-21T13:38:21.141Z,6.20
2023-01-21T13:40:54.672Z,8.93
2023-01-21T13:43:38.362Z,7.03
2023-01-21T13:46:20.712Z,11.50
2023-01-21T13:49:07.398Z,8.43
2023-01-21T13:51:44.329Z,10.90
2023-01-21T13:54:28.055Z,6.47
2023-01-21T13:57:08.631Z,8.20
2023-01-21T13:59:43.069Z,8.63
2023-01-21T14:02:18.634Z,7.80
2023-01-21T14:04:52.757Z,7.40
2023-01-21T14:07:28.081Z,7.30
2023-01-21T14:10:03.274Z,7.20
2023-01-21T14:12:49.395Z,7.37
2023-01-21T14:15:32.307Z,6.90
2023-01-21T14:18:18.166Z,9.23
2023-01-21T14:20:58.373Z,8.97
2023-01-21T14:23:47.231Z,6.20
2023-01-21T14:26:36.032Z,6.80
2023-01-21T14:29:12.413Z,6.70
2023-01-21T14:31:44.227Z,7.90
2023-01-21T14:34:19.368Z,9.30
2023-01-21T14:36:55.976Z,10.67
2023-01-21T14:39:43.028Z,6.33
2023-01-21T14:42:12.673Z,7.97
2023-01-21T14:44:45.393Z,6.50
2023-01-21T14:47:18.934Z,8.97
2023-01-21T14:49:50.435Z,7.33
2023-01-21T14:52:21.239Z,8.53
2023-01-21T14:54:49.956Z,6.63
2023-01-21T14:57:26.487Z,8.63
2023-01-21T15:00:02.351Z,9.27
2023-01-21T15:02:32.104Z,9.07
2023-01-21T15:05:03.585Z,7.90
2023-01-21T15:07:36.286Z,7.53
2023-01-21T15:10:11.581Z,9.93
2023-01-21T15:12:42.962Z,10.50
2023-01-21T15:15:31.053Z,8.70
2023-01-21T15:18:23.330Z,12.80
2023-01-21T15:20:57.976Z,8.63
2023-01-21T15:23:38.408Z,8.20
2023-01-21T15:26:20.176Z,11.37
2023-01-21T15:28:49.235Z,8.13
2023-01-21T15:31:43.474Z,9.80
2023-01-21T15:34:17.296Z,9.30
2023-01-21T15:36:52.767Z,9.63
2023-01-21T15:39:26.321Z,10.17
2023-01-21T15:42:06.453Z,8.60
2023-01-21T15:44:48.528Z,9.33
2023-01-21T15:47:34.760Z,8.97
2023-01-21T15:50:10.496Z,6.43
2023-01-21T15:52:55.771Z,8.30
2023-01-21T15:55:36.381Z,8.80
2023-01-21T15:58:15.956Z,10.27
2023-01-21T16:00:51.644Z,8.50
2023-01-21T16:03:26.219Z,9.60
2023-01-21T16:06:02.311Z,10.23
2023-01-21T16:11:56.335Z,7.73
2023-01-21T16:14:38.747Z,8.87
2023-01-21T16:17:17.437Z,9.70
2023-01-21T16:19:49.186Z,12.87
2023-01-21T16:22:25.788Z,8.77
2023-01-21T16:24:58.247Z,9.20
2023-01-21T16:27:30.954Z,9.90
2023-01-21T16:30:00.617Z,11.63
2023-01-21T16:32:30.995Z,11.20
2023-01-21T16:35:01.706Z,11.40
2023-01-21T16:37:31.078Z,9.30
2023-01-21T16:40:21.761Z,11.20
2023-01-21T16:43:07.154Z,11.83
2023-01-21T16:45:35.081Z,8.47
2023-01-21T16:48:03.007Z,12.93
2023-01-21T16:50:33.138Z,10.67
2023-01-21T16:53:08.601Z,11.07
2023-01-21T16:55:45.680Z,10.60
2023-01-21T16:58:27.708Z,9.73
2023-01-21T17:01:02.238Z,11.73
2023-01-21T17:03:32.172Z,12.50
2023-01-21T17:06:05.563Z,11.23
2023-01-21T17:08:34.481Z,7.70
2023-01-21T17:11:04.991Z,10.80
2023-01-21T17:13:34.773Z,8.10
2023-01-21T17:16:04.485Z,9.47
2023-01-21T17:18:36.441Z,11.70
2023-01-21T17:21:08.245Z,12.40
2023-01-21T17:23:40.499Z,11.27
2023-01-21T17:26:16.556Z,8.67
2023-01-21T17:28:49.182Z,9.33
2023-01-21T17:31:28.157Z,13.03
2023-01-21T17:34:18.728Z,11.13
2023-01-21T17:36:49.053Z,9.20
2023-01-21T17:39:56.686Z,14.03
2023-01-21T17:42:26.777Z,11.63
2023-01-21T17:44:59.016Z,11.00
2023-01-21T17:47:30.209Z,9.17
2023-01-21T17:50:00.248Z,9.87
2023-01-21T17:52:28.702Z,9.53
2023-01-21T17:55:15.447Z,10.77
2023-01-21T17:57:43.699Z,10.20
2023-01-21T18:00:29.343Z,9.00
2023-01-21T18:02:59.588Z,11.30
2023-01-21T18:05:28.491Z,11.43
2023-01-21T18:07:56.549Z,11.23
2023-01-21T18:10:27.907Z,9.93
2023-01-21T18:12:56.938Z,10.90
2023-01-21T18:15:27.097Z,11.70
2023-01-21T18:17:58.107Z,14.10
2023-01-21T18:20:28.111Z,14.77
2023-01-21T18:22:58.268Z,9.50
2023-01-21T18:25:27.856Z,11.23
2023-01-21T18:27:56.741Z,12.70
2023-01-21T18:30:28.357Z,8.40
2023-01-21T18:32:57.786Z,10.07
2023-01-21T18:35:28.929Z,8.00
2023-01-21T18:37:57.193Z,9.63
2023-01-21T18:40:25.425Z,11.13
2023-01-21T18:42:55.941Z,11.93
2023-01-21T18:45:28.189Z,15.67
2023-01-21T18:47:58.894Z,15.43
2023-01-21T18:50:28.646Z,12.77
2023-01-21T18:52:57.309Z,14.13
2023-01-21T18:55:28.969Z,13.30
2023-01-21T18:57:58.030Z,13.80
2023-01-21T19:00:29.928Z,13.23
2023-01-21T19:03:01.071Z,15.60
2023-01-21T19:05:33.927Z,13.17
2023-01-21T19:08:02.713Z,13.90
2023-01-21T19:10:30.534Z,13.03
2023-01-21T19:12:58.482Z,12.57
2023-01-21T19:15:29.651Z,11.93
2023-01-21T19:17:58.457Z,13.63
2023-01-21T19:20:28.848Z,12.37
2023-01-21T19:22:57.712Z,13.13
2023-01-21T19:25:27.207Z,10.70
2023-01-21T19:27:57.581Z,13.37
2023-01-21T19:30:29.106Z,12.70
2023-01-21T19:33:00.617Z,10.80
2023-01-21T19:35:34.323Z,14.60
2023-01-21T19:38:03.126Z,13.27
2023-01-21T19:40:31.966Z,14.00
2023-01-21T19:42:59.848Z,13.83
2023-01-21T19:45:30.209Z,13.27
2023-01-21T19:47:58.125Z,26.40
2023-01-21T19:50:27.657Z,21.60
2023-01-21T19:52:56.157Z,15.20
2023-01-21T19:55:26.459Z,17.30
2023-01-21T19:57:57.428Z,15.97
2023-01-21T20:00:27.394Z,14.13
2023-01-21T20:02:56.881Z,18.33
2023-01-21T20:05:27.635Z,16.53
2023-01-21T20:07:55.952Z,25.30
2023-01-21T20:10:26.534Z,22.83
2023-01-21T20:12:55.050Z,21.40
2023-01-21T20:15:26.790Z,19.63
2023-01-21T20:17:59.033Z,16.60
2023-01-21T20:20:28.648Z,15.30
2023-01-21T20:22:56.953Z,15.43
2023-01-21T20:25:26.331Z,16.20
2023-01-21T20:27:57.857Z,17.47
2023-01-21T20:30:28.683Z,17.97
2023-01-21T20:33:00.940Z,14.90
2023-01-21T20:35:29.188Z,17.40
2023-01-21T20:37:58.942Z,15.83
2023-01-21T20:40:29.744Z,15.10
2023-01-21T20:42:58.605Z,15.37
2023-01-21T20:45:31.524Z,15.83
2023-01-21T20:48:03.356Z,13.77
2023-01-21T20:50:35.420Z,16.30
2023-01-21T20:53:04.615Z,14.77
2023-01-21T20:55:32.766Z,13.00
2023-01-21T20:58:00.734Z,17.87
2023-01-21T21:00:31.649Z,13.63
2023-01-21T21:03:01.148Z,11.80
2023-01-21T21:05:29.655Z,13.10
2023-01-21T21:07:57.671Z,13.83
2023-01-21T21:10:29.328Z,14.13
2023-01-21T21:12:58.809Z,13.80
2023-01-21T21:15:28.256Z,14.80
2023-01-21T21:17:56.951Z,13.50
2023-01-21T21:20:28.845Z,13.27
2023-01-21T21:22:56.995Z,13.93
2023-01-21T21:25:27.403Z,13.33
2023-01-21T21:27:55.982Z,15.57
2023-01-21T21:30:25.996Z,14.17
2023-01-21T21:32:54.039Z,14.43
2023-01-21T21:35:28.353Z,15.50
2023-01-21T21:38:02.021Z,18.63
2023-01-21T21:40:30.574Z,16.83
2023-01-21T21:43:16.569Z,18.93
2023-01-21T21:45:58.840Z,16.50
2023-01-21T21:48:38.799Z,95.83
2023-01-21T21:51:09.415Z,32.30
2023-01-21T21:53:38.000Z,21.10
2023-01-21T21:56:08.281Z,16.00
2023-01-21T21:58:36.237Z,18.53
2023-01-21T22:01:11.724Z,17.60
2023-01-21T22:03:40.097Z,18.80
2023-01-21T22:06:10.160Z,18.60
2023-01-21T22:08:39.516Z,17.30
2023-01-21T22:11:09.064Z,16.40
2023-01-21T22:13:40.272Z,17.03
2023-01-21T22:16:11.668Z,19.70
2023-01-21T22:18:40.233Z,18.53
2023-01-21T22:21:12.118Z,21.47
2023-01-21T22:23:40.179Z,19.60
2023-01-21T22:26:12.335Z,20.40
2023-01-21T22:28:40.799Z,17.97
2023-01-21T22:31:11.185Z,19.53
2023-01-21T22:33:40.385Z,24.00
2023-01-21T22:36:12.032Z,22.70
2023-01-21T22:38:41.019Z,18.57
2023-01-21T22:41:10.837Z,20.03
2023-01-21T22:43:41.752Z,22.43
2023-01-21T22:46:12.001Z,29.17
2023-01-21T22:48:41.466Z,21.67
2023-01-21T22:51:13.214Z,24.80
2023-01-21T22:53:41.520Z,27.57
2023-01-21T22:56:09.473Z,25.13
2023-01-21T22:58:37.621Z,24.57
2023-01-21T23:01:06.259Z,25.30
2023-01-21T23:03:34.241Z,23.77
2023-01-21T23:06:06.284Z,25.20
2023-01-21T23:08:37.322Z,26.40
2023-01-21T23:11:07.556Z,24.30
2023-01-21T23:13:36.350Z,21.57
2023-01-21T23:16:09.815Z,26.70
2023-01-21T23:18:40.396Z,28.77
2023-01-21T23:21:09.603Z,22.23
2023-01-21T23:23:39.077Z,22.27
2023-01-21T23:26:09.797Z,20.33
2023-01-21T23:28:41.441Z,24.10
2023-01-21T23:31:11.545Z,22.60
2023-01-21T23:33:41.350Z,26.47
2023-01-21T23:36:11.282Z,23.80
2023-01-21T23:38:41.397Z,21.67
2023-01-21T23:41:10.798Z,22.13
2023-01-21T23:43:38.954Z,22.00
2023-01-21T23:46:08.111Z,19.20
2023-01-21T23:48:36.027Z,19.67
2023-01-21T23:51:04.738Z,18.47
2023-01-21T23:53:34.305Z,21.43
2023-01-21T23:56:08.537Z,17.47
2023-01-21T23:58:36.478Z,20.20
